createdAt,value
2018-07-07T00:05:36.819Z,43.80
2018-07-07T00:10:39.875Z,44.30
2018-07-07T00:15:42.951Z,44.80
2018-07-07T00:20:46.006Z,44.60
2018-07-07T00:25:49.063Z,44.80
2018-07-07T00:30:52.413Z,44.90
2018-07-07T00:35:55.602Z,44.70
2018-07-07T00:40:58.641Z,45.20
2018-07-07T00:46:01.940Z,46.00
2018-07-07T00:51:05.245Z,46.30
2018-07-07T00:56:08.419Z,46.40
2018-07-07T01:06:33.741Z,45.80
2018-07-07T01:11:36.838Z,47.60
2018-07-07T01:16:39.928Z,48.40
2018-07-07T01:21:42.974Z,48.70
2018-07-07T01:26:46.086Z,49.40
2018-07-07T01:32:03.671Z,50.10
2018-07-07T01:37:06.876Z,50.30
2018-07-07T01:42:09.960Z,50.50
2018-07-07T01:47:13.054Z,50.90
2018-07-07T01:52:24.601Z,51.20
2018-07-07T01:57:27.893Z,51.00
2018-07-07T02:02:32.132Z,52.10
2018-07-07T02:07:35.583Z,52.70
2018-07-07T02:12:38.705Z,53.20
2018-07-07T02:17:41.849Z,52.90
2018-07-07T02:22:45.051Z,52.70
2018-07-07T02:27:48.204Z,53.10
2018-07-07T02:32:51.233Z,54.10
2018-07-07T02:37:54.568Z,54.40
2018-07-07T02:42:57.620Z,55.00
2018-07-07T02:48:00.700Z,54.90
2018-07-07T02:58:06.670Z,56.20
2018-07-07T03:03:33.708Z,56.40
2018-07-07T03:24:32.918Z,56.60
2018-07-07T03:29:35.964Z,57.20
2018-07-07T03:34:39.030Z,57.70
2018-07-07T03:39:42.100Z,57.80
2018-07-07T03:44:45.161Z,58.10
2018-07-07T03:49:48.372Z,58.10
2018-07-07T03:54:57.955Z,58.20
2018-07-07T04:00:02.523Z,59.00
2018-07-07T04:05:05.701Z,59.00
2018-07-07T04:10:09.814Z,58.80
2018-07-07T04:15:12.849Z,59.00
2018-07-07T04:20:15.942Z,58.80
2018-07-07T04:25:19.010Z,58.80
2018-07-07T04:30:22.245Z,58.70
2018-07-07T04:35:25.303Z,58.50
2018-07-07T04:40:30.134Z,58.40
2018-07-07T04:45:33.411Z,58.10
2018-07-07T04:50:36.951Z,57.70
2018-07-07T04:55:40.310Z,58.00
2018-07-07T05:00:50.515Z,58.50
2018-07-07T05:05:53.572Z,58.50
2018-07-07T05:10:56.645Z,58.30
2018-07-07T05:16:00.087Z,57.90
2018-07-07T05:21:03.466Z,57.30
2018-07-07T05:26:06.657Z,56.90
2018-07-07T05:31:09.776Z,56.70
2018-07-07T05:36:13.399Z,56.30
2018-07-07T05:41:16.456Z,55.90
2018-07-07T05:46:19.930Z,55.40
2018-07-07T05:51:37.096Z,55.50
2018-07-07T05:56:40.219Z,53.70
2018-07-07T06:01:43.882Z,54.00
2018-07-07T06:06:47.091Z,54.50
2018-07-07T06:11:50.409Z,54.40
2018-07-07T06:16:53.565Z,54.80
2018-07-07T06:21:56.773Z,55.40
2018-07-07T06:32:02.737Z,57.10
2018-07-07T06:42:33.045Z,57.70
2018-07-07T06:47:36.115Z,56.90
2018-07-07T06:52:39.401Z,57.10
2018-07-07T06:57:42.445Z,57.00
2018-07-07T07:02:45.553Z,56.80
2018-07-07T07:07:48.699Z,56.00
2018-07-07T07:12:51.757Z,55.50
2018-07-07T07:17:54.969Z,55.40
2018-07-07T07:22:58.076Z,55.30
2018-07-07T07:28:01.400Z,54.60
2018-07-07T07:33:04.452Z,53.70
2018-07-07T07:43:17.448Z,53.70
2018-07-07T07:48:35.490Z,52.90
2018-07-07T07:59:35.037Z,52.00
2018-07-07T08:04:38.558Z,51.40
2018-07-07T08:09:41.686Z,51.20
2018-07-07T08:14:53.482Z,51.10
2018-07-07T08:19:56.582Z,51.00
2018-07-07T08:24:59.652Z,51.80
2018-07-07T08:30:02.794Z,50.90
2018-07-07T08:35:06.199Z,49.30
2018-07-07T08:40:12.873Z,49.30
2018-07-07T08:45:18.009Z,48.80
2018-07-07T08:52:29.046Z,48.60
2018-07-07T08:57:33.820Z,48.60
2018-07-07T09:02:37.119Z,48.40
2018-07-07T09:07:42.816Z,48.40
2018-07-07T09:12:46.606Z,48.20
2018-07-07T09:17:54.887Z,47.80
2018-07-07T09:22:58.233Z,47.30
2018-07-07T09:28:01.291Z,47.40
2018-07-07T09:38:07.201Z,47.20
2018-07-07T09:43:10.305Z,46.80
2018-07-07T09:48:13.689Z,47.00
2018-07-07T09:53:16.821Z,47.90
2018-07-07T09:58:19.992Z,46.70
2018-07-07T10:03:23.196Z,47.30
2018-07-07T10:08:26.259Z,45.70
2018-07-07T10:13:29.376Z,45.40
2018-07-07T10:23:35.535Z,44.30
2018-07-07T10:28:38.942Z,43.80
2018-07-07T10:33:43.611Z,43.90
2018-07-07T10:38:46.762Z,43.20
2018-07-07T10:43:49.866Z,43.10
2018-07-07T10:48:54.020Z,43.20
2018-07-07T10:53:59.817Z,43.40
2018-07-07T10:59:05.822Z,42.80
2018-07-07T11:04:09.048Z,42.10
2018-07-07T11:09:12.159Z,41.40
2018-07-07T11:14:15.317Z,41.70
2018-07-07T11:19:18.505Z,41.70
2018-07-07T11:24:21.725Z,41.90
2018-07-07T11:29:47.436Z,41.40
2018-07-07T11:34:50.593Z,41.30
2018-07-07T11:39:54.057Z,40.80
2018-07-07T11:44:59.266Z,40.40
2018-07-07T11:50:04.448Z,39.70
2018-07-07T11:55:16.502Z,39.70
2018-07-07T12:00:19.709Z,39.90
2018-07-07T12:05:23.190Z,40.20
2018-07-07T12:10:26.399Z,40.60
2018-07-07T12:15:29.648Z,39.10
2018-07-07T12:20:34.493Z,38.40
2018-07-07T12:25:45.488Z,38.40
2018-07-07T12:30:54.388Z,38.30
2018-07-07T12:35:57.971Z,38.00
2018-07-07T12:41:01.504Z,38.70
2018-07-07T12:46:04.690Z,38.90
2018-07-07T12:51:08.001Z,39.30
2018-07-07T12:56:11.761Z,38.40
2018-07-07T13:01:15.235Z,39.00
2018-07-07T13:06:30.302Z,38.80
2018-07-07T13:11:33.377Z,38.00
2018-07-07T13:16:36.756Z,38.10
2018-07-07T13:21:40.283Z,37.60
2018-07-07T13:26:45.053Z,37.50
2018-07-07T13:31:49.960Z,37.30
2018-07-07T13:36:53.010Z,37.00
2018-07-07T13:41:57.446Z,36.60
2018-07-07T13:47:00.549Z,36.00
2018-07-07T13:52:03.740Z,36.70
2018-07-07T13:57:06.822Z,37.20
2018-07-07T14:02:10.210Z,36.80
2018-07-07T14:07:13.563Z,36.20
2018-07-07T14:12:16.841Z,36.20
2018-07-07T14:17:23.455Z,35.90
2018-07-07T14:22:26.636Z,35.60
2018-07-07T14:32:33.474Z,36.20
2018-07-07T14:37:36.519Z,35.80
2018-07-07T14:42:50.702Z,35.70
2018-07-07T14:47:55.118Z,34.90
2018-07-07T14:52:58.644Z,34.40
2018-07-07T14:58:01.880Z,35.70
2018-07-07T15:03:05.093Z,35.70
2018-07-07T15:08:24.645Z,35.90
2018-07-07T15:13:27.962Z,36.30
2018-07-07T15:18:32.010Z,35.30
2018-07-07T15:23:35.577Z,35.60
2018-07-07T15:28:38.748Z,34.40
2018-07-07T15:33:41.873Z,34.30
2018-07-07T15:38:46.460Z,35.20
2018-07-07T15:43:49.855Z,35.10
2018-07-07T15:48:53.137Z,34.70
2018-07-07T15:53:56.901Z,34.40
2018-07-07T15:59:00.074Z,35.00
2018-07-07T16:04:03.221Z,34.40
2018-07-07T16:09:07.007Z,35.00
2018-07-07T16:14:10.139Z,33.80
2018-07-07T16:19:13.264Z,33.50
2018-07-07T16:24:24.536Z,33.80
2018-07-07T16:29:27.801Z,34.30
2018-07-07T16:34:31.620Z,34.70
2018-07-07T16:39:59.106Z,34.20
2018-07-07T16:45:02.249Z,33.60
2018-07-07T16:50:05.440Z,34.20
2018-07-07T16:55:08.553Z,33.90
2018-07-07T17:00:12.651Z,33.50
2018-07-07T17:05:15.718Z,33.70
2018-07-07T17:10:19.553Z,33.30
2018-07-07T17:15:22.939Z,34.00
2018-07-07T17:20:26.252Z,34.00
2018-07-07T17:26:04.845Z,34.30
2018-07-07T17:31:08.062Z,34.40
2018-07-07T17:36:11.464Z,34.90
2018-07-07T17:41:14.666Z,35.20
2018-07-07T17:46:18.012Z,34.40
2018-07-07T17:51:21.353Z,35.00
2018-07-07T17:56:25.047Z,34.70
2018-07-07T18:01:29.889Z,34.30
2018-07-07T18:06:33.203Z,34.50
2018-07-07T18:11:38.155Z,34.80
2018-07-07T18:16:41.198Z,34.40
2018-07-07T18:21:45.111Z,34.80
2018-07-07T18:26:48.277Z,35.00
2018-07-07T18:31:51.464Z,35.60
2018-07-07T18:36:54.682Z,36.00
2018-07-07T18:41:57.852Z,36.60
2018-07-07T18:47:01.141Z,37.10
2018-07-07T18:52:21.813Z,37.30
2018-07-07T19:02:34.421Z,38.40
2018-07-07T19:07:37.714Z,38.90
2018-07-07T19:12:40.962Z,39.20
2018-07-07T19:17:44.198Z,39.40
2018-07-07T19:22:52.874Z,39.80
2018-07-07T19:27:56.296Z,40.20
2018-07-07T19:33:04.821Z,40.50
2018-07-07T19:38:08.018Z,40.60
2018-07-07T19:43:28.914Z,40.90
2018-07-07T19:48:34.894Z,41.20
2018-07-07T19:53:38.293Z,41.60
2018-07-07T19:58:41.474Z,42.10
2018-07-07T20:03:44.590Z,42.50
2018-07-07T20:08:57.046Z,43.00
2018-07-07T20:14:00.297Z,44.00
2018-07-07T20:19:28.369Z,43.90
2018-07-07T20:24:32.733Z,44.60
2018-07-07T20:29:35.913Z,44.90
2018-07-07T20:34:39.263Z,45.30
2018-07-07T20:39:42.414Z,45.80
2018-07-07T20:49:48.323Z,46.70
2018-07-07T20:54:51.380Z,46.60
2018-07-07T20:59:54.433Z,47.10
2018-07-07T21:04:58.391Z,47.40
2018-07-07T21:15:21.939Z,47.90
2018-07-07T21:20:26.066Z,48.40
2018-07-07T21:25:29.191Z,48.70
2018-07-07T21:30:32.233Z,49.10
2018-07-07T21:35:35.278Z,49.50
2018-07-07T21:40:38.338Z,49.90
2018-07-07T21:50:44.292Z,50.70
2018-07-07T21:56:00.961Z,50.90
2018-07-07T22:01:16.018Z,50.90
2018-07-07T22:06:25.257Z,51.30
2018-07-07T22:11:29.980Z,51.50
2018-07-07T22:21:57.416Z,52.20
2018-07-07T22:27:15.799Z,52.60
2018-07-07T22:32:25.896Z,52.80
2018-07-07T22:37:29.029Z,53.10
2018-07-07T22:42:32.292Z,53.60
2018-07-07T22:47:35.572Z,54.20
2018-07-07T22:52:38.617Z,54.70
2018-07-07T22:57:55.899Z,55.00
2018-07-07T23:02:59.885Z,55.20
2018-07-07T23:08:03.164Z,55.40
2018-07-07T23:13:06.393Z,55.70
2018-07-07T23:18:09.416Z,55.90
2018-07-07T23:23:12.436Z,56.10
2018-07-07T23:28:16.992Z,55.90
2018-07-07T23:33:20.169Z,56.30
2018-07-07T23:38:23.213Z,55.50
2018-07-07T23:43:26.829Z,55.70
2018-07-07T23:48:29.874Z,56.00
2018-07-07T23:53:32.924Z,56.30
2018-07-07T23:58:36.002Z,56.30
